Time;durP1;ratioP1;P1;durP2;ratioP2;P2;SDS_P1;SDS_P2;PMS_P1;PMS_P2;Temp;Humidity;BMP_temperature;BMP_pressure;BME280_temperature;BME280_humidity;BME280_pressure;Samples;Min_cycle;Max_cycle;Signal;HPM_P1;HPM_P2
2021/01/15 00:01:22;;;;;;;;;;;;;;;-0.82;86.52;102364.41;4978590;28;1962;-77
2021/01/15 00:03:48;;;;;;;;;;;;;;;-0.83;87.09;102365.47;4979063;28;1020;-77
2021/01/15 00:06:21;;;;;;;;;;;;;;;-0.81;86.57;102365.25;4979217;28;815;-77
2021/01/15 00:08:47;;;;;;;;;;;;;;;-0.80;87.09;102353.31;4978424;28;1323;-77
2021/01/15 00:11:20;;;;;;;;;;;;;;;-0.80;87.08;102359.56;4978674;28;1962;-77
2021/01/15 00:13:45;;;;;;;;;;;;;;;-0.80;87.04;102354.16;4978775;28;1128;-77
2021/01/15 00:16:25;;;;;;;;;;;;;;;-0.82;86.97;102350.84;4978468;28;1259;-77
2021/01/15 00:18:52;;;;;;;;;;;;;;;-0.81;87.07;102357.94;4978166;28;1354;-77
2021/01/15 00:21:19;;;;;;;;;;;;;;;-0.80;87.10;102353.31;4978370;28;2023;-77
2021/01/15 00:23:45;;;;;;;;;;;;;;;-0.81;87.11;102355.22;4978486;28;967;-77
2021/01/15 00:26:21;;;;;;;;;;;;;;;-0.80;86.99;102353.31;4978551;28;877;-77
2021/01/15 00:28:47;;;;;;;;;;;;;;;-0.80;87.60;102356.03;4978422;28;1322;-77
2021/01/15 00:31:12;;;;;;;;;;;;;;;-0.80;87.80;102365.00;4978807;28;2057;-77
2021/01/15 00:33:38;;;;;;;;;;;;;;;-0.79;87.59;102369.38;4977831;28;988;-77
2021/01/15 00:36:06;;;;;;;;;;;;;;;-0.80;87.50;102359.56;4978710;28;864;-77
2021/01/15 00:38:33;;;;;;;;;;;;;;;-0.79;87.91;102363.13;4977752;28;1883;-77
2021/01/15 00:40:59;;;;;;;;;;;;;;;-0.77;87.82;102361.81;4977818;28;2013;-77
2021/01/15 00:43:25;;;;;;;;;;;;;;;-0.78;87.24;102362.91;4978395;28;854;-77
2021/01/15 00:45:50;;;;;;;;;;;;;;;-0.78;87.11;102372.91;4978322;28;889;-77
2021/01/15 00:48:15;;;;;;;;;;;;;;;-0.82;87.19;102364.41;4977930;28;1314;-77
2021/01/15 00:50:41;;;;;;;;;;;;;;;-0.81;87.17;102371.50;4978694;28;874;-77
2021/01/15 00:53:06;;;;;;;;;;;;;;;-0.80;87.13;102364.19;4977483;28;1854;-77
2021/01/15 00:55:31;;;;;;;;;;;;;;;-0.78;87.26;102364.78;4978328;28;869;-77
2021/01/15 00:57:58;;;;;;;;;;;;;;;-0.78;86.56;102376.47;4977538;28;1898;-77
2021/01/15 01:00:23;;;;;;;;;;;;;;;-0.75;86.67;102369.75;4978562;28;1404;-76
2021/01/15 01:02:49;;;;;;;;;;;;;;;-0.76;86.60;102374.34;4978056;28;1922;-77
2021/01/15 01:05:14;;;;;;;;;;;;;;;-0.73;86.53;102373.03;4978117;28;859;-77
2021/01/15 01:07:43;;;;;;;;;;;;;;;-0.71;86.61;102370.94;4977501;28;1366;-77
2021/01/15 01:10:10;;;;;;;;;;;;;;;-0.70;86.06;102377.19;4977555;28;1259;-77
2021/01/15 01:12:43;;;;;;;;;;;;;;;-0.70;85.87;102369.06;4977483;28;1823;-77
2021/01/15 01:15:10;;;;;;;;;;;;;;;-0.69;86.50;102373.41;4978029;28;921;-77
2021/01/15 01:17:35;;;;;;;;;;;;;;;-0.70;85.87;102371.78;4977296;28;1890;-77
2021/01/15 01:20:01;;;;;;;;;;;;;;;-0.70;86.48;102367.16;4980830;28;829;-77
2021/01/15 01:22:26;;;;;;;;;;;;;;;-0.70;86.14;102378.00;4982485;28;1828;-77
2021/01/15 01:24:52;;;;;;;;;;;;;;;-0.70;86.56;102372.59;4981075;28;1883;-77
2021/01/15 01:27:17;;;;;;;;;;;;;;;-0.69;86.28;102382.41;4980279;28;1440;-77
2021/01/15 01:29:42;;;;;;;;;;;;;;;-0.66;87.09;102381.94;4982507;28;992;-77
2021/01/15 01:32:07;;;;;;;;;;;;;;;-0.65;86.83;102382.75;4984601;28;1072;-77
2021/01/15 01:34:33;;;;;;;;;;;;;;;-0.65;86.91;102390.91;4984145;28;2067;-76
2021/01/15 01:36:58;;;;;;;;;;;;;;;-0.65;86.72;102393.63;4983402;28;1886;-77
2021/01/15 01:39:23;;;;;;;;;;;;;;;-0.65;86.62;102389.00;4982530;28;1544;-77
2021/01/15 01:41:49;;;;;;;;;;;;;;;-0.67;86.66;102390.31;4984457;28;1064;-77
2021/01/15 01:44:14;;;;;;;;;;;;;;;-0.66;86.77;102394.66;4985733;28;2063;-76
2021/01/15 01:46:40;;;;;;;;;;;;;;;-0.66;86.88;102394.66;4984849;28;1075;-77
2021/01/15 01:49:06;;;;;;;;;;;;;;;-0.65;86.52;102393.63;4984897;28;1413;-76
2021/01/15 01:51:31;;;;;;;;;;;;;;;-0.64;86.71;102393.38;4984139;28;1115;-77
2021/01/15 01:53:57;;;;;;;;;;;;;;;-0.63;86.65;102402.34;4976955;28;2034;-77
2021/01/15 01:56:22;;;;;;;;;;;;;;;-0.64;86.24;102401.53;4977060;28;1894;-77
2021/01/15 01:58:49;;;;;;;;;;;;;;;-0.63;86.82;102407.78;4974862;28;1549;-77
2021/01/15 02:01:17;;;;;;;;;;;;;;;-0.63;86.79;102413.19;4976732;28;796;-77
2021/01/15 02:03:42;;;;;;;;;;;;;;;-0.63;86.94;102413.19;4976737;28;1949;-77
2021/01/15 02:06:12;;;;;;;;;;;;;;;-0.61;86.51;102416.50;4976742;28;881;-77
2021/01/15 02:08:38;;;;;;;;;;;;;;;-0.63;86.56;102419.44;4976548;28;1406;-77
2021/01/15 02:11:20;;;;;;;;;;;;;;;-0.61;86.65;102421.94;4976494;28;944;-77
2021/01/15 02:13:51;;;;;;;;;;;;;;;-0.62;86.61;102420.28;4976440;28;1995;-77
2021/01/15 02:16:21;;;;;;;;;;;;;;;-0.63;86.50;102421.34;4975944;28;1956;-77
2021/01/15 02:18:54;;;;;;;;;;;;;;;-0.62;86.83;102414.88;4975850;28;1355;-77
2021/01/15 02:21:52;;;;;;;;;;;;;;;-0.62;86.51;102418.41;4976331;28;2007;-77
2021/01/15 02:24:33;;;;;;;;;;;;;;;-0.62;86.73;102425.72;4976330;28;887;-77
2021/01/15 02:27:36;;;;;;;;;;;;;;;-0.62;86.48;102426.53;4975153;28;858;-78
2021/01/15 02:30:07;;;;;;;;;;;;;;;-0.64;86.70;102425.94;4976977;28;817;-77
2021/01/15 02:33:11;;;;;;;;;;;;;;;-0.62;87.06;102431.16;4976326;28;1974;-77
2021/01/15 02:35:45;;;;;;;;;;;;;;;-0.61;87.03;102422.75;4976630;28;938;-77
2021/01/15 02:38:22;;;;;;;;;;;;;;;-0.59;86.99;102423.38;4975395;28;1906;-77
2021/01/15 02:41:02;;;;;;;;;;;;;;;-0.61;86.83;102424.66;4976410;28;989;-77
2021/01/15 02:43:29;;;;;;;;;;;;;;;-0.60;87.23;102426.31;4975774;28;2036;-77
2021/01/15 02:45:57;;;;;;;;;;;;;;;-0.61;87.15;102427.34;4976315;28;961;-77
2021/01/15 02:48:29;;;;;;;;;;;;;;;-0.58;86.95;102433.16;4975762;28;1283;-77
2021/01/15 02:50:55;;;;;;;;;;;;;;;-0.57;86.71;102431.28;4976039;28;806;-77
2021/01/15 02:53:20;;;;;;;;;;;;;;;-0.58;87.10;102433.16;4975603;28;1826;-77
2021/01/15 02:55:46;;;;;;;;;;;;;;;-0.55;87.40;102429.16;4975535;28;1051;-77
2021/01/15 02:58:12;;;;;;;;;;;;;;;-0.58;86.57;102433.16;4973721;28;1914;-76
2021/01/15 03:00:37;;;;;;;;;;;;;;;-0.57;86.67;102431.28;4976428;28;847;-77
2021/01/15 03:03:34;;;;;;;;;;;;;;;-0.57;86.88;102429.38;4975825;28;1927;-77
2021/01/15 03:06:09;;;;;;;;;;;;;;;-0.55;87.09;102426.44;4975915;28;861;-77
2021/01/15 03:08:36;;;;;;;;;;;;;;;-0.55;86.71;102425.59;4975787;28;1319;-77
2021/01/15 03:11:03;;;;;;;;;;;;;;;-0.59;86.73;102430.66;4975936;28;864;-77
2021/01/15 03:13:29;;;;;;;;;;;;;;;-0.58;86.81;102433.16;4975545;28;2021;-77
2021/01/15 03:16:02;;;;;;;;;;;;;;;-0.56;87.04;102430.22;4975268;28;1977;-77
2021/01/15 03:18:29;;;;;;;;;;;;;;;-0.58;86.98;102435.03;4975135;28;1953;-77
2021/01/15 03:20:55;;;;;;;;;;;;;;;-0.57;86.87;102434.81;4975605;28;793;-77
2021/01/15 03:23:20;;;;;;;;;;;;;;;-0.59;86.37;102438.81;4975534;28;1804;-77
2021/01/15 03:25:46;;;;;;;;;;;;;;;-0.59;86.98;102441.50;4975901;28;937;-77
2021/01/15 03:28:11;;;;;;;;;;;;;;;-0.58;87.55;102437.75;4974610;28;1391;-77
2021/01/15 03:30:36;;;;;;;;;;;;;;;-0.55;87.66;102441.88;4975734;28;984;-77
2021/01/15 03:33:04;;;;;;;;;;;;;;;-0.57;87.25;102445.66;4975873;28;1778;-77
2021/01/15 03:35:30;;;;;;;;;;;;;;;-0.56;87.87;102446.50;4975227;28;2069;-77
2021/01/15 03:38:03;;;;;;;;;;;;;;;-0.55;87.60;102450.88;4974888;28;1963;-77
2021/01/15 03:40:31;;;;;;;;;;;;;;;-0.55;87.61;102452.75;4975126;28;1461;-77
2021/01/15 03:42:58;;;;;;;;;;;;;;;-0.55;87.36;102448.16;4975950;28;1099;-77
2021/01/15 03:45:24;;;;;;;;;;;;;;;-0.54;87.65;102444.38;4975384;28;1988;-77
2021/01/15 03:47:52;;;;;;;;;;;;;;;-0.52;88.34;102450.41;4975237;28;1358;-77
2021/01/15 03:50:17;;;;;;;;;;;;;;;-0.50;87.94;102456.44;4975069;28;1437;-77
2021/01/15 03:52:46;;;;;;;;;;;;;;;-0.50;87.99;102461.88;4975775;28;984;-77
2021/01/15 03:55:11;;;;;;;;;;;;;;;-0.50;87.72;102455.59;4975316;28;1800;-77
2021/01/15 03:57:37;;;;;;;;;;;;;;;-0.51;88.13;102459.38;4974743;28;1894;-77
2021/01/15 04:00:06;;;;;;;;;;;;;;;-0.50;87.95;102456.44;4974058;28;2037;-77
2021/01/15 04:02:31;;;;;;;;;;;;;;;-0.51;88.20;102462.09;4975067;28;1229;-77
2021/01/15 04:04:57;;;;;;;;;;;;;;;-0.51;87.68;102464.81;4975043;28;2028;-76
2021/01/15 04:07:22;;;;;;;;;;;;;;;-0.49;88.20;102465.41;4976205;28;1306;-77
2021/01/15 04:09:47;;;;;;;;;;;;;;;-0.49;87.96;102466.22;4979113;28;846;-77
2021/01/15 04:12:13;;;;;;;;;;;;;;;-0.48;88.43;102469.78;4978902;28;854;-77
2021/01/15 04:14:39;;;;;;;;;;;;;;;-0.49;88.24;102471.66;4978627;28;1942;-77
2021/01/15 04:17:05;;;;;;;;;;;;;;;-0.48;87.96;102473.31;4978180;28;1970;-77
2021/01/15 04:19:30;;;;;;;;;;;;;;;-0.47;88.02;102482.28;4976854;28;2062;-77
2021/01/15 04:21:56;;;;;;;;;;;;;;;-0.47;88.26;102477.66;4978978;28;850;-77
2021/01/15 04:24:22;;;;;;;;;;;;;;;-0.48;88.11;102481.47;4978260;28;1938;-77
2021/01/15 04:26:56;;;;;;;;;;;;;;;-0.48;88.00;102477.94;4978581;28;901;-77
2021/01/15 04:29:22;;;;;;;;;;;;;;;-0.47;88.46;102482.28;4977785;28;1283;-77
2021/01/15 04:31:48;;;;;;;;;;;;;;;-0.45;88.60;102485.59;4978307;28;890;-77
2021/01/15 04:34:14;;;;;;;;;;;;;;;-0.47;88.42;102477.66;4978167;28;1963;-76
2021/01/15 04:36:40;;;;;;;;;;;;;;;-0.47;88.38;102491.25;4978156;28;2120;-77
2021/01/15 04:39:06;;;;;;;;;;;;;;;-0.47;88.34;102485.81;4977663;28;1338;-77
2021/01/15 04:41:32;;;;;;;;;;;;;;;-0.49;87.96;102487.94;4978846;28;925;-77
2021/01/15 04:43:58;;;;;;;;;;;;;;;-0.49;88.49;102490.66;4978617;28;826;-77
2021/01/15 04:46:24;;;;;;;;;;;;;;;-0.52;87.60;102495.72;4978086;28;2088;-77
2021/01/15 04:48:50;;;;;;;;;;;;;;;-0.54;87.39;102498.66;4976527;28;1421;-77
2021/01/15 04:51:19;;;;;;;;;;;;;;;-0.53;87.81;102502.22;4978516;28;877;-77
2021/01/15 04:54:03;;;;;;;;;;;;;;;-0.53;88.10;102503.03;4977927;28;840;-77
2021/01/15 04:56:39;;;;;;;;;;;;;;;-0.52;88.39;102512.00;4977587;28;1965;-77
2021/01/15 04:59:07;;;;;;;;;;;;;;;-0.55;88.01;102507.00;4978098;28;1334;-77
2021/01/15 05:01:41;;;;;;;;;;;;;;;-0.55;87.72;102504.28;4978051;28;826;-77
2021/01/15 05:04:08;;;;;;;;;;;;;;;-0.59;88.05;102510.19;4977892;28;905;-77
2021/01/15 05:06:48;;;;;;;;;;;;;;;-0.60;87.50;102505.00;4977742;28;2078;-77
2021/01/15 05:09:21;;;;;;;;;;;;;;;-0.60;87.96;102508.53;4977317;28;1371;-77
2021/01/15 05:11:48;;;;;;;;;;;;;;;-0.59;87.89;102514.78;4977302;28;1477;-77
2021/01/15 05:14:16;;;;;;;;;;;;;;;-0.58;88.31;102519.97;4977729;28;873;-77
2021/01/15 05:16:43;;;;;;;;;;;;;;;-0.54;87.61;102524.97;4977446;28;1993;-77
2021/01/15 05:19:12;;;;;;;;;;;;;;;-0.52;87.84;102514.69;4976484;28;1386;-77
2021/01/15 05:21:38;;;;;;;;;;;;;;;-0.51;87.75;102509.06;4977639;28;1071;-77
2021/01/15 05:24:05;;;;;;;;;;;;;;;-0.51;87.69;102510.94;4977506;28;1074;-77
2021/01/15 05:26:35;;;;;;;;;;;;;;;-0.54;87.65;102523.06;4977461;28;2029;-76
2021/01/15 05:29:02;;;;;;;;;;;;;;;-0.55;87.50;102528.72;4977018;28;1275;-77
2021/01/15 05:31:27;;;;;;;;;;;;;;;-0.54;87.89;102536.63;4977016;28;1735;-77
2021/01/15 05:34:04;;;;;;;;;;;;;;;-0.50;87.57;102531.56;4977326;28;984;-77
2021/01/15 05:36:30;;;;;;;;;;;;;;;-0.51;87.62;102524.50;4977180;28;2077;-77
2021/01/15 05:39:19;;;;;;;;;;;;;;;-0.53;87.27;102526.63;4976989;28;1416;-77
2021/01/15 05:41:46;;;;;;;;;;;;;;;-0.58;87.28;102528.13;4972153;28;1229;-77
2021/01/15 05:44:31;;;;;;;;;;;;;;;-0.58;87.61;102533.56;4977977;28;988;-77
2021/01/15 05:46:59;;;;;;;;;;;;;;;-0.59;88.13;102531.91;4957939;28;881;-77
2021/01/15 05:49:25;;;;;;;;;;;;;;;-0.61;87.60;102534.00;4957364;28;1260;-77
2021/01/15 05:51:50;;;;;;;;;;;;;;;-0.61;88.07;102527.75;4957690;29;779;-77
2021/01/15 05:54:33;;;;;;;;;;;;;;;-0.62;87.56;102529.66;4958048;28;814;-77
2021/01/15 05:56:59;;;;;;;;;;;;;;;-0.62;87.84;102531.53;4957845;28;1899;-78
2021/01/15 05:59:25;;;;;;;;;;;;;;;-0.63;88.02;102538.84;4957216;28;1291;-77
2021/01/15 06:01:51;;;;;;;;;;;;;;;-0.65;87.63;102535.53;4957893;28;877;-77
2021/01/15 06:04:18;;;;;;;;;;;;;;;-0.65;88.25;102535.53;4957096;28;1244;-77
2021/01/15 06:06:45;;;;;;;;;;;;;;;-0.65;88.11;102529.28;4975433;28;2075;-77
2021/01/15 06:09:12;;;;;;;;;;;;;;;-0.65;88.31;102540.13;4976391;28;1660;-77
2021/01/15 06:11:40;;;;;;;;;;;;;;;-0.67;87.92;102545.78;4976891;28;877;-77
2021/01/15 06:14:29;;;;;;;;;;;;;;;-0.67;88.22;102555.81;4976803;28;979;-76
2021/01/15 06:17:04;;;;;;;;;;;;;;;-0.67;87.83;102544.97;4975939;28;1899;-75
2021/01/15 06:19:46;;;;;;;;;;;;;;;-0.67;88.20;102544.97;4976403;28;1349;-77
2021/01/15 06:22:37;;;;;;;;;;;;;;;-0.67;88.18;102542.25;4976079;28;2032;-77
2021/01/15 06:25:25;;;;;;;;;;;;;;;-0.71;87.81;102544.59;4973709;28;2041;-76
2021/01/15 06:27:58;;;;;;;;;;;;;;;-0.68;87.98;102535.16;4975853;28;1993;-77
2021/01/15 06:30:25;;;;;;;;;;;;;;;-0.72;87.40;102531.25;4975286;28;1438;-76
2021/01/15 06:32:52;;;;;;;;;;;;;;;-0.70;87.73;102534.56;4976525;28;822;-77
2021/01/15 06:35:28;;;;;;;;;;;;;;;-0.70;87.98;102546.22;4975908;28;2005;-77
2021/01/15 06:38:00;;;;;;;;;;;;;;;-0.72;87.58;102544.81;4975377;28;1891;-77
2021/01/15 06:40:46;;;;;;;;;;;;;;;-0.72;87.68;102544.81;4976315;28;897;-77
2021/01/15 06:43:27;;;;;;;;;;;;;;;-0.73;88.02;102548.56;4976155;28;1008;-76
2021/01/15 06:45:54;;;;;;;;;;;;;;;-0.73;87.72;102546.66;4975634;28;1816;-76
2021/01/15 06:48:22;;;;;;;;;;;;;;;-0.69;88.29;102555.19;4975506;28;1310;-76
2021/01/15 06:50:50;;;;;;;;;;;;;;;-0.70;88.16;102554.38;4976229;28;888;-77
2021/01/15 06:53:16;;;;;;;;;;;;;;;-0.71;88.00;102544.59;4976478;28;867;-78
2021/01/15 06:55:51;;;;;;;;;;;;;;;-0.69;87.80;102553.31;4973926;28;1935;-78
2021/01/15 06:58:23;;;;;;;;;;;;;;;-0.67;88.26;102556.63;4976295;28;1898;-78
2021/01/15 07:01:14;;;;;;;;;;;;;;;-0.69;88.33;102552.47;4976350;28;819;-78
2021/01/15 07:04:03;;;;;;;;;;;;;;;-0.74;87.58;102555.88;4976310;28;921;-78
2021/01/15 07:06:30;;;;;;;;;;;;;;;-0.75;87.46;102565.06;4975832;28;1969;-78
2021/01/15 07:08:57;;;;;;;;;;;;;;;-0.77;87.57;102567.19;4974954;28;1959;-77
2021/01/15 07:11:24;;;;;;;;;;;;;;;-0.78;87.68;102577.22;4976052;28;1066;-77
2021/01/15 07:13:54;;;;;;;;;;;;;;;-0.79;87.31;102574.72;4976815;28;860;-77
2021/01/15 07:16:32;;;;;;;;;;;;;;;-0.79;86.97;102578.25;4976027;28;885;-77
2021/01/15 07:19:06;;;;;;;;;;;;;;;-0.77;87.22;102578.03;4975129;28;1906;-77
2021/01/15 07:21:37;;;;;;;;;;;;;;;-0.78;86.89;102581.78;4975541;28;2068;-77
2021/01/15 07:24:04;;;;;;;;;;;;;;;-0.79;87.14;102578.25;4976320;28;1780;-77
2021/01/15 07:26:39;;;;;;;;;;;;;;;-0.79;87.40;102580.97;4975624;28;1812;-77
2021/01/15 07:29:08;;;;;;;;;;;;;;;-0.78;87.17;102579.91;4971994;28;1986;-78
2021/01/15 07:31:38;;;;;;;;;;;;;;;-0.76;87.71;102582.41;4974486;28;1573;-78
2021/01/15 07:34:06;;;;;;;;;;;;;;;-0.77;86.78;102578.03;4973752;28;1286;-78
2021/01/15 07:36:35;;;;;;;;;;;;;;;-0.74;87.52;102588.44;4964843;28;2131;-77
2021/01/15 07:39:14;;;;;;;;;;;;;;;-0.73;87.26;102583.81;4969760;28;1750;-78
2021/01/15 07:41:49;;;;;;;;;;;;;;;-0.75;86.97;102597.63;4973958;28;1448;-77
2021/01/15 07:44:27;;;;;;;;;;;;;;;-0.74;86.96;102598.44;4977761;28;1447;-78
2021/01/15 07:46:54;;;;;;;;;;;;;;;-0.73;86.40;102597.41;4977586;28;1238;-78
2021/01/15 07:49:20;;;;;;;;;;;;;;;-0.73;86.72;102597.41;4977156;28;1381;-77
2021/01/15 07:52:12;;;;;;;;;;;;;;;-0.71;87.34;102611.56;4976462;28;1915;-77
2021/01/15 07:54:46;;;;;;;;;;;;;;;-0.72;87.03;102604.50;4975685;28;2260;-77
2021/01/15 07:57:16;;;;;;;;;;;;;;;-0.69;86.80;102607.59;4975841;28;2090;-78
2021/01/15 07:59:41;;;;;;;;;;;;;;;-0.67;86.52;102605.47;4976619;28;1900;-78
2021/01/15 08:02:07;;;;;;;;;;;;;;;-0.64;86.28;102613.16;4978642;28;2129;-78
2021/01/15 08:04:33;;;;;;;;;;;;;;;-0.66;85.97;102612.56;4979304;28;1880;-78
2021/01/15 08:07:24;;;;;;;;;;;;;;;-0.65;85.55;102616.09;4978887;28;1991;-79
2021/01/15 08:09:49;;;;;;;;;;;;;;;-0.61;86.09;102617.28;4977966;28;2333;-77
2021/01/15 08:12:14;;;;;;;;;;;;;;;-0.56;86.65;102622.88;4978476;28;2297;-78
2021/01/15 08:14:40;;;;;;;;;;;;;;;-0.56;86.33;102631.03;4979604;28;951;-78
2021/01/15 08:17:14;;;;;;;;;;;;;;;-0.57;84.55;102622.06;4976354;28;2123;-78
2021/01/15 08:19:41;;;;;;;;;;;;;;;-0.51;85.73;102627.63;4979981;28;2564;-76
2021/01/15 08:22:08;;;;;;;;;;;;;;;-0.51;85.05;102633.06;4978836;28;2267;-77
2021/01/15 08:24:44;;;;;;;;;;;;;;;-0.58;83.88;102633.13;4978643;28;2392;-77
2021/01/15 08:27:21;;;;;;;;;;;;;;;-0.62;84.25;102638.19;4978038;28;2246;-77
2021/01/15 08:29:48;;;;;;;;;;;;;;;-0.65;84.50;102635.91;4976995;28;1934;-77
2021/01/15 08:32:14;;;;;;;;;;;;;;;-0.67;83.88;102639.91;4977821;28;2501;-77
2021/01/15 08:34:40;;;;;;;;;;;;;;;-0.64;84.93;102643.00;4977069;28;2208;-77
2021/01/15 08:37:10;;;;;;;;;;;;;;;-0.65;84.24;102641.34;4978489;28;1887;-77
2021/01/15 08:39:49;;;;;;;;;;;;;;;-0.64;84.55;102651.16;4977969;28;2595;-77
2021/01/15 08:42:17;;;;;;;;;;;;;;;-0.63;84.58;102654.69;4978130;28;2391;-78
2021/01/15 08:44:46;;;;;;;;;;;;;;;-0.66;83.66;102660.56;4977782;28;2302;-78
2021/01/15 08:47:13;;;;;;;;;;;;;;;-0.66;83.95;102664.13;4977592;28;1474;-77
2021/01/15 08:49:39;;;;;;;;;;;;;;;-0.65;84.14;102664.94;4977879;28;2106;-78
2021/01/15 08:52:06;;;;;;;;;;;;;;;-0.68;82.66;102668.91;4979452;28;877;-77
2021/01/15 08:54:37;;;;;;;;;;;;;;;-0.70;83.23;102662.88;4975992;28;2220;-77
2021/01/15 08:57:04;;;;;;;;;;;;;;;-0.71;83.11;102674.81;4975271;28;1987;-78
2021/01/15 08:59:31;;;;;;;;;;;;;;;-0.67;83.99;102675.19;4979686;28;1381;-80
2021/01/15 09:02:03;;;;;;;;;;;;;;;-0.71;83.67;102684.81;4976765;28;2085;-78
2021/01/15 09:04:33;;;;;;;;;;;;;;;-0.74;83.16;102685.25;4978888;28;897;-78
2021/01/15 09:07:01;;;;;;;;;;;;;;;-0.76;83.02;102693.63;4976762;28;2315;-78
2021/01/15 09:09:28;;;;;;;;;;;;;;;-0.73;82.25;102692.34;4976864;28;2407;-78
2021/01/15 09:11:53;;;;;;;;;;;;;;;-0.82;82.33;102697.22;4976194;28;2090;-77
2021/01/15 09:14:21;;;;;;;;;;;;;;;-0.85;82.73;102701.22;4976759;28;2365;-78
2021/01/15 09:16:49;;;;;;;;;;;;;;;-0.85;82.77;102706.66;4977424;28;3032;-78
2021/01/15 09:19:16;;;;;;;;;;;;;;;-0.95;82.39;102690.84;4975379;28;2148;-79
2021/01/15 09:21:50;;;;;;;;;;;;;;;-0.87;82.94;102702.47;4978272;28;2006;-78
2021/01/15 09:24:17;;;;;;;;;;;;;;;-0.84;82.47;102707.47;4978652;28;870;-77
2021/01/15 09:26:43;;;;;;;;;;;;;;;-0.86;83.03;102712.28;4973556;28;2016;-79
2021/01/15 09:29:12;;;;;;;;;;;;;;;-0.87;82.19;102722.28;4963568;28;2124;-77
2021/01/15 09:31:39;;;;;;;;;;;;;;;-0.88;82.31;102717.94;4963987;28;2203;-78
2021/01/15 09:34:04;;;;;;;;;;;;;;;-0.93;81.83;102727.75;4973106;28;2244;-78
2021/01/15 09:36:30;;;;;;;;;;;;;;;-0.89;83.07;102724.41;4978247;28;863;-78
2021/01/15 09:38:57;;;;;;;;;;;;;;;-0.90;83.32;102733.59;4973715;28;1964;-79
2021/01/15 09:41:23;;;;;;;;;;;;;;;-0.92;82.59;102735.69;4970800;28;1621;-79
2021/01/15 09:43:55;;;;;;;;;;;;;;;-0.93;82.14;102744.03;4963800;28;1715;-78
2021/01/15 09:46:26;;;;;;;;;;;;;;;-0.92;83.20;102740.28;4976426;28;1359;-79
2021/01/15 09:48:53;;;;;;;;;;;;;;;-0.95;83.20;102741.56;4966929;28;1430;-78
2021/01/15 09:51:24;;;;;;;;;;;;;;;-0.95;83.67;102744.28;4958041;28;1278;-79
2021/01/15 09:53:49;;;;;;;;;;;;;;;-0.95;84.37;102752.41;4976799;28;1084;-78
2021/01/15 09:56:22;;;;;;;;;;;;;;;-0.96;84.50;102751.56;4975612;28;1758;-79
2021/01/15 09:58:47;;;;;;;;;;;;;;;-0.96;84.59;102754.28;4966656;28;1972;-79
2021/01/15 10:01:12;;;;;;;;;;;;;;;-1.02;82.47;102757.88;4972577;28;1234;-79
2021/01/15 10:03:38;;;;;;;;;;;;;;;-1.07;83.73;102760.41;4963671;28;1356;-78
2021/01/15 10:06:03;;;;;;;;;;;;;;;-1.09;82.45;102762.53;4975555;28;1210;-78
2021/01/15 10:08:29;;;;;;;;;;;;;;;-1.12;83.54;102765.66;4963187;28;1488;-78
2021/01/15 10:10:54;;;;;;;;;;;;;;;-1.15;83.25;102769.63;4957290;28;1361;-78
2021/01/15 10:13:19;;;;;;;;;;;;;;;-1.15;82.10;102756.06;4957386;28;1230;-78
2021/01/15 10:15:45;;;;;;;;;;;;;;;-1.09;82.31;102761.66;4958061;28;1363;-79
2021/01/15 10:18:10;;;;;;;;;;;;;;;-1.06;81.14;102751.22;4968275;28;1903;-78
2021/01/15 10:20:35;;;;;;;;;;;;;;;-0.96;80.94;102754.28;4967953;28;1277;-78
2021/01/15 10:23:00;;;;;;;;;;;;;;;-0.91;79.65;102748.19;4975930;28;1246;-78
2021/01/15 10:25:26;;;;;;;;;;;;;;;-0.79;78.58;102745.63;4975677;28;2027;-79
2021/01/15 10:27:51;;;;;;;;;;;;;;;-0.69;77.74;102750.53;4975708;28;2304;-78
2021/01/15 10:30:17;;;;;;;;;;;;;;;-0.70;76.12;102746.19;4977648;28;858;-78
2021/01/15 10:32:46;;;;;;;;;;;;;;;-0.60;77.44;102750.03;4976731;28;2311;-78
2021/01/15 10:35:11;;;;;;;;;;;;;;;-0.52;76.02;102750.81;4976229;28;2243;-77
2021/01/15 10:37:39;;;;;;;;;;;;;;;-0.63;73.83;102755.09;4986147;28;2453;-78
2021/01/15 10:40:05;;;;;;;;;;;;;;;-0.59;76.25;102759.84;4986372;28;2243;-78
2021/01/15 10:42:36;;;;;;;;;;;;;;;-0.60;73.44;102752.75;4983529;28;2264;-78
2021/01/15 10:45:01;;;;;;;;;;;;;;;-0.58;73.10;102756.06;4988779;28;2368;-78
2021/01/15 10:47:27;;;;;;;;;;;;;;;-0.63;73.23;102755.09;4988657;28;1318;-78
2021/01/15 10:49:52;;;;;;;;;;;;;;;-0.56;73.22;102753.13;4983099;28;1960;-78
2021/01/15 10:52:17;;;;;;;;;;;;;;;-0.61;73.69;102761.13;4978042;28;2101;-77
2021/01/15 10:54:43;;;;;;;;;;;;;;;-0.54;74.25;102758.34;4981421;28;1983;-77
2021/01/15 10:57:08;;;;;;;;;;;;;;;-0.53;73.40;102754.59;4987035;28;2283;-78
2021/01/15 10:59:33;;;;;;;;;;;;;;;-0.46;72.84;102756.19;4975301;28;2032;-79
2021/01/15 11:01:58;;;;;;;;;;;;;;;-0.48;71.86;102758.28;4976769;28;2163;-79
2021/01/15 11:04:24;;;;;;;;;;;;;;;-0.47;72.24;102759.94;4976892;28;909;-78
2021/01/15 11:06:54;;;;;;;;;;;;;;;-0.46;71.05;102761.63;4975988;28;2290;-78
2021/01/15 11:09:21;;;;;;;;;;;;;;;-0.41;70.13;102759.06;4975587;28;2430;-78
2021/01/15 11:11:47;;;;;;;;;;;;;;;-0.41;69.88;102750.91;4975112;28;2212;-78
2021/01/15 11:14:14;;;;;;;;;;;;;;;-0.41;70.82;102750.09;4975324;28;2125;-78
2021/01/15 11:16:39;;;;;;;;;;;;;;;-0.35;68.40;102754.63;4975505;28;2381;-77
2021/01/15 11:19:04;;;;;;;;;;;;;;;-0.38;68.03;102752.38;4979314;28;2199;-79
2021/01/15 11:21:30;;;;;;;;;;;;;;;-0.39;69.24;102762.38;4980990;28;993;-78
2021/01/15 11:23:55;;;;;;;;;;;;;;;-0.40;67.11;102751.75;4978651;28;2186;-78
2021/01/15 11:26:25;;;;;;;;;;;;;;;-0.23;68.73;102754.72;4979346;28;1436;-78
2021/01/15 11:28:54;;;;;;;;;;;;;;;-0.19;66.99;102755.94;4979183;28;1405;-77
2021/01/15 11:31:20;;;;;;;;;;;;;;;-0.17;67.80;102755.69;4979015;28;1991;-77
2021/01/15 11:33:46;;;;;;;;;;;;;;;-0.16;67.70;102760.91;4979405;28;1960;-78
2021/01/15 11:36:12;;;;;;;;;;;;;;;-0.22;66.79;102749.06;4979005;28;2324;-77
2021/01/15 11:38:38;;;;;;;;;;;;;;;-0.08;68.75;102744.31;4978453;28;1890;-77
2021/01/15 11:41:04;;;;;;;;;;;;;;;-0.01;68.81;102753.22;4978328;28;2469;-76
2021/01/15 11:43:37;;;;;;;;;;;;;;;-0.13;66.61;102752.31;4978360;28;2379;-76
2021/01/15 11:46:04;;;;;;;;;;;;;;;-0.33;67.11;102748.97;4977245;28;1996;-76
2021/01/15 11:48:29;;;;;;;;;;;;;;;-0.31;69.28;102746.84;4977739;28;2341;-76
2021/01/15 11:51:01;;;;;;;;;;;;;;;3.92;55.84;102740.53;4973996;28;2185;-76
2021/01/15 11:53:32;;;;;;;;;;;;;;;7.44;45.24;102733.22;4979414;28;2075;-76
2021/01/15 11:55:59;;;;;;;;;;;;;;;11.31;35.61;102729.56;4979303;28;2072;-76
2021/01/15 11:58:25;;;;;;;;;;;;;;;12.94;30.88;102725.44;4977901;28;2047;-78
2021/01/15 12:00:50;;;;;;;;;;;;;;;14.42;28.50;102721.72;4977383;28;2315;-77
2021/01/15 12:03:16;;;;;;;;;;;;;;;15.43;28.52;102718.75;4979496;28;1227;-78
2021/01/15 12:05:42;;;;;;;;;;;;;;;15.41;25.14;102715.47;4979020;28;2206;-78
2021/01/15 12:08:07;;;;;;;;;;;;;;;13.17;32.85;102723.47;4979071;28;1294;-78
2021/01/15 12:10:33;;;;;;;;;;;;;;;9.80;35.48;102723.63;4977611;28;2161;-78
2021/01/15 12:12:58;;;;;;;;;;;;;;;8.76;36.66;102727.56;4979187;28;870;-78
2021/01/15 12:15:23;;;;;;;;;;;;;;;8.76;39.47;102727.56;4960966;28;2195;-78
2021/01/15 12:17:49;;;;;;;;;;;;;;;11.93;33.76;102712.69;4978701;28;1906;-77
2021/01/15 12:20:14;;;;;;;;;;;;;;;15.33;27.05;102716.31;4976073;28;1878;-77
2021/01/15 12:22:39;;;;;;;;;;;;;;;14.93;25.90;102703.47;4976728;28;1309;-77
2021/01/15 12:25:06;;;;;;;;;;;;;;;13.82;27.20;102718.44;4974818;28;2188;-78
2021/01/15 12:27:32;;;;;;;;;;;;;;;13.00;29.63;102719.75;4976016;28;1965;-77
2021/01/15 12:29:57;;;;;;;;;;;;;;;11.88;31.34;102716.34;4966720;28;1624;-78
2021/01/15 12:32:22;;;;;;;;;;;;;;;10.36;33.71;102719.38;4976546;28;1226;-78
2021/01/15 12:34:48;;;;;;;;;;;;;;;8.93;37.08;102718.88;4976471;28;1435;-77
2021/01/15 12:37:13;;;;;;;;;;;;;;;7.59;40.57;102726.91;4974337;28;1907;-77
2021/01/15 12:39:38;;;;;;;;;;;;;;;6.21;44.46;102726.47;4968958;28;1285;-77
2021/01/15 12:42:04;;;;;;;;;;;;;;;5.14;46.19;102734.78;4967369;28;1699;-78
2021/01/15 12:44:29;;;;;;;;;;;;;;;4.50;48.40;102728.13;4968865;28;1301;-77
2021/01/15 12:46:55;;;;;;;;;;;;;;;4.02;49.83;102737.13;4958996;28;1395;-78
2021/01/15 12:49:20;;;;;;;;;;;;;;;3.63;50.06;102737.13;4973884;28;1326;-77
2021/01/15 12:51:45;;;;;;;;;;;;;;;3.30;52.65;102733.31;4962525;28;1495;-77
2021/01/15 12:54:11;;;;;;;;;;;;;;;2.70;50.69;102729.28;4970259;28;1953;-78
2021/01/15 12:56:38;;;;;;;;;;;;;;;2.69;50.37;102728.44;4974703;28;2262;-78
2021/01/15 12:59:03;;;;;;;;;;;;;;;2.30;51.67;102730.13;4968143;28;1915;-77